Time;durP1;ratioP1;P1;durP2;ratioP2;P2;SDS_P1;SDS_P2;PMS_P1;PMS_P2;Temp;Humidity;BMP_temperature;BMP_pressure;BME280_temperature;BME280_humidity;BME280_pressure;Samples;Min_cycle;Max_cycle;Signal;HPM_P1;HPM_P2
2022/08/25 00:01:54;;;;;;;25.40;12.85;;;;;;;;;;6125604;23;20014;-70
2022/08/25 00:04:22;;;;;;;20.75;6.90;;;;;;;;;;6125909;23;20018;-70
2022/08/25 00:06:49;;;;;;;18.67;6.95;;;;;;;;;;6125624;23;20017;-70
2022/08/25 00:09:18;;;;;;;17.30;5.43;;;;;;;;;;6126082;23;20029;-70
2022/08/25 00:11:48;;;;;;;19.50;5.80;;;;;;;;;;6125514;23;20022;-70
2022/08/25 00:14:17;;;;;;;21.75;6.05;;;;;;;;;;6125651;23;20056;-71
2022/08/25 00:16:45;;;;;;;21.02;7.25;;;;;;;;;;6125632;23;20014;-70
2022/08/25 00:19:18;;;;;;;16.90;5.78;;;;;;;;;;6125464;23;20022;-70
2022/08/25 00:21:46;;;;;;;17.45;5.88;;;;;;;;;;6125373;23;20449;-70
2022/08/25 00:24:15;;;;;;;23.38;5.65;;;;;;;;;;6125328;23;20022;-70
2022/08/25 00:26:47;;;;;;;21.58;5.70;;;;;;;;;;6125617;23;20069;-71
2022/08/25 00:29:15;;;;;;;19.38;5.88;;;;;;;;;;6123709;23;20033;-70
2022/08/25 00:31:44;;;;;;;22.67;6.25;;;;;;;;;;6125533;23;20092;-70
2022/08/25 00:34:13;;;;;;;16.50;6.07;;;;;;;;;;6125543;23;20040;-70
2022/08/25 00:36:41;;;;;;;18.33;6.45;;;;;;;;;;6125640;23;20018;-70
2022/08/25 00:39:09;;;;;;;19.48;5.82;;;;;;;;;;6125295;23;20022;-71
2022/08/25 00:41:37;;;;;;;18.27;5.53;;;;;;;;;;6125515;23;20126;-69
2022/08/25 00:44:07;;;;;;;23.33;6.47;;;;;;;;;;6125481;23;20381;-70
2022/08/25 00:46:43;;;;;;;16.25;5.93;;;;;;;;;;6125441;23;20440;-70
2022/08/25 00:49:12;;;;;;;21.38;6.00;;;;;;;;;;6125152;23;20021;-70
2022/08/25 00:51:59;;;;;;;16.48;5.50;;;;;;;;;;6125395;23;20018;-70
2022/08/25 00:54:28;;;;;;;15.27;5.70;;;;;;;;;;6123795;23;20018;-70
2022/08/25 00:56:57;;;;;;;16.00;5.50;;;;;;;;;;6125427;23;20018;-70
2022/08/25 00:59:25;;;;;;;18.52;5.70;;;;;;;;;;6125394;23;20084;-70
2022/08/25 01:01:53;;;;;;;19.40;5.85;;;;;;;;;;6125374;23;20025;-71
2022/08/25 01:04:21;;;;;;;19.33;5.93;;;;;;;;;;6125244;23;20101;-71
2022/08/25 01:06:49;;;;;;;20.77;6.50;;;;;;;;;;6125449;23;20523;-70
2022/08/25 01:09:18;;;;;;;14.57;5.85;;;;;;;;;;6125170;23;20080;-70
2022/08/25 01:11:46;;;;;;;18.70;6.22;;;;;;;;;;6125637;23;20318;-70
2022/08/25 01:14:15;;;;;;;21.60;6.13;;;;;;;;;;6125986;23;20089;-70
2022/08/25 01:16:43;;;;;;;15.18;5.85;;;;;;;;;;6126868;23;20322;-70
2022/08/25 01:19:12;;;;;;;19.55;6.50;;;;;;;;;;6126299;23;20081;-70
2022/08/25 01:21:43;;;;;;;16.00;5.63;;;;;;;;;;6126795;23;20072;-70
2022/08/25 01:24:13;;;;;;;28.27;7.78;;;;;;;;;;6126983;23;20038;-70
2022/08/25 01:26:41;;;;;;;20.90;6.22;;;;;;;;;;6127060;23;20025;-70
2022/08/25 01:29:24;;;;;;;13.82;5.53;;;;;;;;;;6126933;23;20030;-70
2022/08/25 01:31:59;;;;;;;16.80;6.25;;;;;;;;;;6126991;23;20090;-71
2022/08/25 01:34:28;;;;;;;19.50;6.80;;;;;;;;;;6127029;23;20021;-70
2022/08/25 01:36:56;;;;;;;20.05;6.25;;;;;;;;;;6126862;23;20021;-70
2022/08/25 01:39:24;;;;;;;18.92;6.55;;;;;;;;;;6126945;23;20089;-71
2022/08/25 01:42:08;;;;;;;18.17;6.68;;;;;;;;;;6127105;23;20028;-70
2022/08/25 01:44:37;;;;;;;20.25;7.53;;;;;;;;;;6126681;23;20021;-70
2022/08/25 01:47:05;;;;;;;19.35;7.10;;;;;;;;;;6126879;23;20033;-70
2022/08/25 01:49:33;;;;;;;22.30;7.63;;;;;;;;;;6126840;23;20014;-70
2022/08/25 01:52:07;;;;;;;23.98;8.05;;;;;;;;;;6126826;23;20026;-70
2022/08/25 01:54:34;;;;;;;21.33;7.60;;;;;;;;;;6126617;23;20021;-70
2022/08/25 01:57:02;;;;;;;21.30;8.27;;;;;;;;;;6126977;23;20051;-70
2022/08/25 01:59:29;;;;;;;19.27;8.45;;;;;;;;;;6126672;23;20018;-70
2022/08/25 02:01:56;;;;;;;23.80;7.57;;;;;;;;;;6126484;23;20381;-70
2022/08/25 02:04:30;;;;;;;23.60;10.57;;;;;;;;;;6126479;23;20077;-70
2022/08/25 02:06:59;;;;;;;21.90;10.68;;;;;;;;;;6126978;23;20341;-70
2022/08/25 02:09:27;;;;;;;22.73;10.00;;;;;;;;;;6126595;23;20065;-70
2022/08/25 02:11:55;;;;;;;22.60;9.77;;;;;;;;;;6126399;23;20444;-70
2022/08/25 02:14:23;;;;;;;43.38;23.60;;;;;;;;;;6126443;23;20018;-70
2022/08/25 02:16:51;;;;;;;24.13;10.55;;;;;;;;;;6126661;23;20029;-71
2022/08/25 02:19:19;;;;;;;30.25;11.13;;;;;;;;;;6126757;23;20399;-70
2022/08/25 02:21:47;;;;;;;17.25;8.50;;;;;;;;;;6126333;23;20093;-70
2022/08/25 02:24:14;;;;;;;25.25;8.23;;;;;;;;;;6126206;23;20025;-70
2022/08/25 02:26:42;;;;;;;24.52;12.20;;;;;;;;;;6125827;23;20022;-70
2022/08/25 02:29:10;;;;;;;22.38;8.23;;;;;;;;;;6126415;23;20014;-70
2022/08/25 02:31:38;;;;;;;27.27;8.38;;;;;;;;;;6124704;23;20032;-70
2022/08/25 02:34:06;;;;;;;24.75;10.73;;;;;;;;;;6126206;23;20026;-71
2022/08/25 02:36:34;;;;;;;31.15;14.57;;;;;;;;;;6126184;23;20017;-70
2022/08/25 02:39:01;;;;;;;21.23;8.00;;;;;;;;;;6126638;23;20022;-70
2022/08/25 02:41:32;;;;;;;20.42;8.68;;;;;;;;;;6126130;23;20041;-70
2022/08/25 02:44:00;;;;;;;22.17;9.55;;;;;;;;;;6126117;23;20025;-70
2022/08/25 02:46:27;;;;;;;19.23;8.15;;;;;;;;;;6126212;23;20018;-70
2022/08/25 02:48:55;;;;;;;21.20;10.10;;;;;;;;;;6126228;23;20022;-70
2022/08/25 02:51:24;;;;;;;20.92;6.93;;;;;;;;;;6126229;23;20088;-70
2022/08/25 02:53:51;;;;;;;19.55;8.55;;;;;;;;;;6125899;23;20062;-70
2022/08/25 02:56:19;;;;;;;23.73;11.00;;;;;;;;;;6126378;23;20089;-70
2022/08/25 02:58:47;;;;;;;26.23;10.85;;;;;;;;;;6124570;23;20025;-70
2022/08/25 03:01:16;;;;;;;20.95;11.15;;;;;;;;;;6125927;23;20027;-70
2022/08/25 03:03:45;;;;;;;26.20;12.63;;;;;;;;;;6126246;23;20322;-70
2022/08/25 03:06:13;;;;;;;23.73;14.68;;;;;;;;;;6125957;23;20022;-70
2022/08/25 03:08:41;;;;;;;22.80;9.43;;;;;;;;;;6126071;23;20017;-70
2022/08/25 03:11:09;;;;;;;18.45;7.82;;;;;;;;;;6126152;23;20049;-70
2022/08/25 03:13:37;;;;;;;18.25;9.07;;;;;;;;;;6124491;23;20445;-70
2022/08/25 03:16:05;;;;;;;17.83;6.65;;;;;;;;;;6125843;23;20029;-70
2022/08/25 03:18:39;;;;;;;15.32;6.88;;;;;;;;;;6125938;23;20485;-70
2022/08/25 03:21:07;;;;;;;21.10;7.35;;;;;;;;;;6126116;23;20022;-70
2022/08/25 03:23:35;;;;;;;22.60;6.65;;;;;;;;;;6125970;23;20013;-70
2022/08/25 03:28:48;;;;;;;19.23;6.43;;;;;;;;;;6125775;23;20072;-70
2022/08/25 03:31:16;;;;;;;20.80;6.68;;;;;;;;;;6125937;23;20025;-70
2022/08/25 03:33:43;;;;;;;23.13;8.02;;;;;;;;;;6125424;23;20133;-70
2022/08/25 03:36:11;;;;;;;24.88;6.20;;;;;;;;;;6125766;23;20029;-70
2022/08/25 03:38:39;;;;;;;28.25;7.18;;;;;;;;;;6125722;23;20048;-70
2022/08/25 03:41:16;;;;;;;23.75;5.78;;;;;;;;;;6125641;23;20025;-70
2022/08/25 03:43:44;;;;;;;21.73;6.20;;;;;;;;;;6125697;23;20085;-70
2022/08/25 03:46:22;;;;;;;19.13;5.45;;;;;;;;;;6125643;23;20029;-70
2022/08/25 03:48:50;;;;;;;23.35;6.20;;;;;;;;;;6125462;23;20078;-70
2022/08/25 03:51:21;;;;;;;22.52;6.13;;;;;;;;;;6125703;23;20021;-70
2022/08/25 03:53:49;;;;;;;19.75;6.28;;;;;;;;;;6125700;23;20052;-69
2022/08/25 03:56:17;;;;;;;19.75;6.07;;;;;;;;;;6125960;23;20372;-70
2022/08/25 03:58:44;;;;;;;23.70;5.65;;;;;;;;;;6125617;23;20024;-70
2022/08/25 04:01:12;;;;;;;29.17;12.27;;;;;;;;;;6125536;23;20022;-70
2022/08/25 04:03:41;;;;;;;17.85;5.78;;;;;;;;;;6125786;23;20508;-70
2022/08/25 04:06:09;;;;;;;28.60;6.80;;;;;;;;;;6125323;23;20022;-70
2022/08/25 04:08:37;;;;;;;28.67;6.55;;;;;;;;;;6125330;23;20018;-70
2022/08/25 04:11:06;;;;;;;30.63;7.82;;;;;;;;;;6125431;23;20029;-70
2022/08/25 04:13:33;;;;;;;26.20;5.47;;;;;;;;;;6124127;23;20471;-70
2022/08/25 04:16:01;;;;;;;27.77;7.53;;;;;;;;;;6125641;23;20038;-70
2022/08/25 04:18:30;;;;;;;30.73;10.90;;;;;;;;;;6125526;23;20444;-70
2022/08/25 04:21:08;;;;;;;27.08;8.45;;;;;;;;;;6125677;23;20453;-70
2022/08/25 04:23:36;;;;;;;21.90;5.35;;;;;;;;;;6125609;23;20014;-70
2022/08/25 04:26:08;;;;;;;23.30;5.72;;;;;;;;;;6125294;23;20029;-70
2022/08/25 04:28:36;;;;;;;31.92;5.72;;;;;;;;;;6125333;23;20018;-70
2022/08/25 04:31:07;;;;;;;26.33;5.30;;;;;;;;;;6099737;23;20310;-70
2022/08/25 04:33:36;;;;;;;18.52;7.07;;;;;;;;;;6125428;23;20021;-70
2022/08/25 04:36:07;;;;;;;24.38;7.70;;;;;;;;;;6126021;23;20254;-70
2022/08/25 04:38:39;;;;;;;21.15;6.60;;;;;;;;;;6125620;23;20026;-70
2022/08/25 04:41:07;;;;;;;30.63;6.90;;;;;;;;;;6125313;23;20045;-72
2022/08/25 04:43:35;;;;;;;28.95;7.10;;;;;;;;;;6125457;23;20017;-71
2022/08/25 04:46:07;;;;;;;24.85;8.02;;;;;;;;;;6124786;23;20021;-70
2022/08/25 04:48:35;;;;;;;24.45;5.93;;;;;;;;;;6125653;23;20025;-69
2022/08/25 04:51:06;;;;;;;28.70;7.45;;;;;;;;;;6126909;23;20516;-69
2022/08/25 04:53:34;;;;;;;23.05;6.72;;;;;;;;;;6127523;23;20392;-69
2022/08/25 04:56:01;;;;;;;21.10;7.72;;;;;;;;;;6127259;23;20025;-69
2022/08/25 04:58:30;;;;;;;29.80;6.40;;;;;;;;;;6127137;23;20018;-68
2022/08/25 05:01:03;;;;;;;22.20;6.05;;;;;;;;;;6127126;23;20022;-69
2022/08/25 05:03:31;;;;;;;31.85;6.57;;;;;;;;;;6127229;23;20018;-69
2022/08/25 05:05:59;;;;;;;22.95;6.03;;;;;;;;;;6127129;23;20021;-69
2022/08/25 05:08:26;;;;;;;22.30;5.70;;;;;;;;;;6126918;23;20052;-69
2022/08/25 05:10:55;;;;;;;22.38;5.28;;;;;;;;;;6127631;23;20022;-69
2022/08/25 05:13:24;;;;;;;23.90;5.47;;;;;;;;;;6127200;23;20449;-69
2022/08/25 05:15:52;;;;;;;26.77;6.93;;;;;;;;;;6127028;23;20022;-69
2022/08/25 05:18:21;;;;;;;25.92;7.22;;;;;;;;;;6127114;23;20214;-69
2022/08/25 05:20:49;;;;;;;27.30;5.50;;;;;;;;;;6126988;23;20021;-69
2022/08/25 05:23:17;;;;;;;26.10;5.68;;;;;;;;;;6126905;23;20014;-69
2022/08/25 05:25:44;;;;;;;27.98;5.32;;;;;;;;;;6126549;23;20014;-70
2022/08/25 05:28:13;;;;;;;25.33;6.60;;;;;;;;;;6127074;23;20444;-70
2022/08/25 05:30:42;;;;;;;23.33;6.55;;;;;;;;;;6126867;23;20363;-71
2022/08/25 05:33:10;;;;;;;36.13;18.42;;;;;;;;;;6125581;23;20341;-70
2022/08/25 05:35:38;;;;;;;24.98;5.22;;;;;;;;;;6126749;23;20024;-72
2022/08/25 05:38:06;;;;;;;94.38;67.35;;;;;;;;;;6126982;23;20022;-70
2022/08/25 05:40:41;;;;;;;20.33;5.90;;;;;;;;;;6126848;23;20018;-71
2022/08/25 05:43:09;;;;;;;26.00;5.25;;;;;;;;;;6125859;23;20033;-70
2022/08/25 05:45:36;;;;;;;27.17;12.57;;;;;;;;;;6126287;23;20041;-70
2022/08/25 05:48:04;;;;;;;31.25;5.70;;;;;;;;;;6126668;23;20065;-72
2022/08/25 05:50:32;;;;;;;24.77;8.93;;;;;;;;;;6126381;23;20014;-72
2022/08/25 05:53:00;;;;;;;28.27;9.88;;;;;;;;;;6126681;23;20014;-72
2022/08/25 05:55:27;;;;;;;21.15;6.05;;;;;;;;;;6126759;23;20020;-72
2022/08/25 05:57:55;;;;;;;27.13;6.30;;;;;;;;;;6126785;23;20029;-71
2022/08/25 06:00:22;;;;;;;22.42;5.22;;;;;;;;;;6126544;23;20014;-72
2022/08/25 06:02:50;;;;;;;21.83;5.40;;;;;;;;;;6125244;23;20022;-72
2022/08/25 06:05:19;;;;;;;26.40;5.53;;;;;;;;;;6127019;23;20022;-72
2022/08/25 06:07:48;;;;;;;24.58;5.18;;;;;;;;;;6126758;23;20018;-73
2022/08/25 06:10:16;;;;;;;24.00;5.43;;;;;;;;;;6126663;23;20043;-71
2022/08/25 06:12:44;;;;;;;21.77;5.15;;;;;;;;;;6124929;23;20018;-73
2022/08/25 06:15:13;;;;;;;22.48;5.57;;;;;;;;;;6126841;23;20373;-72
2022/08/25 06:17:41;;;;;;;27.40;5.65;;;;;;;;;;6126467;23;20451;-72
2022/08/25 06:20:10;;;;;;;30.30;8.48;;;;;;;;;;6124175;23;20017;-72
2022/08/25 06:22:39;;;;;;;24.35;6.15;;;;;;;;;;6124334;23;20022;-72
2022/08/25 06:25:08;;;;;;;24.15;5.65;;;;;;;;;;6125358;23;20256;-72
2022/08/25 06:27:36;;;;;;;26.70;5.20;;;;;;;;;;6124963;23;20028;-72
2022/08/25 06:30:04;;;;;;;28.95;9.15;;;;;;;;;;6125129;23;20018;-72
2022/08/25 06:32:35;;;;;;;27.17;6.00;;;;;;;;;;6125279;23;20029;-74
2022/08/25 06:35:03;;;;;;;32.20;6.75;;;;;;;;;;6125141;23;20014;-72
2022/08/25 06:37:32;;;;;;;25.15;5.78;;;;;;;;;;6125006;23;20021;-72
2022/08/25 06:39:59;;;;;;;26.25;5.30;;;;;;;;;;6125020;23;20010;-72
2022/08/25 06:42:27;;;;;;;28.15;4.88;;;;;;;;;;6124904;23;20022;-74
2022/08/25 06:44:54;;;;;;;26.40;5.75;;;;;;;;;;6125151;23;20018;-72
2022/08/25 06:47:22;;;;;;;21.60;5.20;;;;;;;;;;6124841;23;20100;-72
2022/08/25 06:49:49;;;;;;;28.27;4.68;;;;;;;;;;6124933;23;20042;-72
2022/08/25 06:52:17;;;;;;;26.88;4.65;;;;;;;;;;6124589;23;20032;-72
2022/08/25 06:54:45;;;;;;;28.00;4.82;;;;;;;;;;6122934;23;20022;-72
2022/08/25 06:57:15;;;;;;;29.58;5.35;;;;;;;;;;6124561;23;20025;-72
2022/08/25 06:59:43;;;;;;;25.00;5.32;;;;;;;;;;6123048;23;20033;-72
2022/08/25 07:02:10;;;;;;;23.02;4.28;;;;;;;;;;6124647;23;20064;-72
2022/08/25 07:04:38;;;;;;;27.13;5.45;;;;;;;;;;6124621;23;20504;-74
2022/08/25 07:07:05;;;;;;;26.80;5.00;;;;;;;;;;6124671;23;20382;-73
2022/08/25 07:09:33;;;;;;;24.77;4.95;;;;;;;;;;6124637;23;20121;-72
2022/08/25 07:12:05;;;;;;;23.67;5.57;;;;;;;;;;6124420;23;20045;-72
2022/08/25 07:14:35;;;;;;;22.65;4.57;;;;;;;;;;6125545;23;20024;-73
2022/08/25 07:17:02;;;;;;;26.25;4.85;;;;;;;;;;6125353;23;20022;-72
2022/08/25 07:19:38;;;;;;;26.08;4.45;;;;;;;;;;6124033;23;20097;-73
2022/08/25 07:22:07;;;;;;;30.27;4.88;;;;;;;;;;6125285;23;20041;-73
2022/08/25 07:24:35;;;;;;;25.70;4.63;;;;;;;;;;6125455;23;20044;-73
2022/08/25 07:27:04;;;;;;;24.90;5.50;;;;;;;;;;6123809;23;20017;-73
2022/08/25 07:29:32;;;;;;;24.90;5.28;;;;;;;;;;6125382;23;20010;-72
2022/08/25 07:32:01;;;;;;;25.38;5.07;;;;;;;;;;6125487;23;20459;-72
2022/08/25 07:37:19;;;;;;;32.38;5.60;;;;;;;;;;6125533;23;20014;-72
2022/08/25 07:40:07;;;;;;;20.48;4.72;;;;;;;;;;6125348;23;20014;-73
2022/08/25 07:42:34;;;;;;;20.17;5.50;;;;;;;;;;6124807;23;20017;-72
2022/08/25 07:45:04;;;;;;;28.63;5.18;;;;;;;;;;6125454;23;20044;-73
2022/08/25 07:47:33;;;;;;;19.15;4.25;;;;;;;;;;6125167;23;20022;-73
2022/08/25 07:50:02;;;;;;;20.63;4.95;;;;;;;;;;6124582;23;20024;-73
2022/08/25 07:52:32;;;;;;;21.90;4.75;;;;;;;;;;6123496;23;20064;-74
2022/08/25 07:55:00;;;;;;;15.77;4.13;;;;;;;;;;6124822;23;20024;-73
2022/08/25 07:57:28;;;;;;;33.10;5.30;;;;;;;;;;6125215;23;20046;-72
2022/08/25 07:59:57;;;;;;;21.73;4.50;;;;;;;;;;6125104;23;20337;-73
2022/08/25 08:02:25;;;;;;;19.27;4.82;;;;;;;;;;6125428;23;20045;-73
2022/08/25 08:04:53;;;;;;;20.10;4.47;;;;;;;;;;6125301;23;20037;-73
2022/08/25 08:07:25;;;;;;;18.92;4.40;;;;;;;;;;6125718;23;20046;-72
2022/08/25 08:10:11;;;;;;;19.52;4.75;;;;;;;;;;6125161;23;20093;-73
2022/08/25 08:12:59;;;;;;;15.15;4.35;;;;;;;;;;6125036;23;20452;-71
2022/08/25 08:15:27;;;;;;;15.15;4.82;;;;;;;;;;6125620;23;20022;-73
2022/08/25 08:17:57;;;;;;;16.23;4.05;;;;;;;;;;6125323;23;20018;-72
2022/08/25 08:20:25;;;;;;;19.42;4.68;;;;;;;;;;6125402;23;20021;-71
2022/08/25 08:22:53;;;;;;;21.08;4.43;;;;;;;;;;6125228;23;20037;-73
2022/08/25 08:25:21;;;;;;;20.73;4.38;;;;;;;;;;6127150;23;20064;-74
2022/08/25 08:27:55;;;;;;;16.85;4.47;;;;;;;;;;6127643;23;20029;-72
2022/08/25 08:30:23;;;;;;;17.30;4.07;;;;;;;;;;6125874;23;20024;-72
2022/08/25 08:32:53;;;;;;;18.00;4.72;;;;;;;;;;6127409;23;20344;-72
2022/08/25 08:35:39;;;;;;;17.77;4.05;;;;;;;;;;6127652;23;20022;-71
2022/08/25 08:38:07;;;;;;;16.88;4.50;;;;;;;;;;6127335;23;20033;-73
2022/08/25 08:42:15;;;;;;;18.83;4.68;;;;;;;;;;6126090;23;20022;-72
2022/08/25 08:43:52;;;;;;;19.90;4.65;;;;;;;;;;6125626;23;20029;-72
2022/08/25 08:46:21;;;;;;;19.85;4.55;;;;;;;;;;6125726;23;20018;-72
2022/08/25 08:49:00;;;;;;;16.48;4.38;;;;;;;;;;6127010;23;20352;-72
2022/08/25 08:51:32;;;;;;;13.68;3.80;;;;;;;;;;6127009;23;20081;-73
2022/08/25 08:54:26;;;;;;;20.35;4.97;;;;;;;;;;6127063;23;20034;-72
2022/08/25 08:57:12;;;;;;;16.90;4.20;;;;;;;;;;6124163;23;20024;-72
2022/08/25 08:59:51;;;;;;;17.23;4.03;;;;;;;;;;6127358;23;20022;-73
2022/08/25 09:02:42;;;;;;;14.38;3.85;;;;;;;;;;6127305;23;20022;-75
2022/08/25 09:05:19;;;;;;;18.15;4.35;;;;;;;;;;6125446;23;20032;-73
2022/08/25 09:07:52;;;;;;;17.02;4.15;;;;;;;;;;6127352;23;20084;-74
2022/08/25 09:10:21;;;;;;;;;;;;;;;;;;6127281;23;20018;-74
2022/08/25 09:13:06;;;;;;;17.63;4.68;;;;;;;;;;6126837;23;20031;-74
2022/08/25 09:18:41;;;;;;;22.73;4.55;;;;;;;;;;6148103;23;20030;-76
2022/08/25 09:21:24;;;;;;;12.75;4.07;;;;;;;;;;6126381;23;20053;-76
2022/08/25 09:23:58;;;;;;;16.95;4.13;;;;;;;;;;6126672;23;20029;-74
2022/08/25 09:26:44;;;;;;;13.70;4.20;;;;;;;;;;6127010;23;20014;-73
2022/08/25 09:29:19;;;;;;;16.02;3.95;;;;;;;;;;6127003;23;20331;-74
2022/08/25 09:31:50;;;;;;;18.15;4.10;;;;;;;;;;6126555;23;20018;-74
2022/08/25 09:34:19;;;;;;;17.10;3.92;;;;;;;;;;6126460;23;20448;-74
2022/08/25 09:36:49;;;;;;;13.20;3.85;;;;;;;;;;6126536;23;20018;-74
2022/08/25 09:39:18;;;;;;;15.70;4.50;;;;;;;;;;6126828;23;20066;-76
2022/08/25 09:41:55;;;;;;;14.07;4.57;;;;;;;;;;6125303;23;20029;-76
2022/08/25 09:44:34;;;;;;;15.23;4.32;;;;;;;;;;6125923;23;20089;-75
2022/08/25 09:47:02;;;;;;;13.57;4.20;;;;;;;;;;6126844;23;20524;-74
2022/08/25 09:49:32;;;;;;;12.65;4.20;;;;;;;;;;6126774;23;20022;-74
2022/08/25 09:52:18;;;;;;;16.90;4.30;;;;;;;;;;6126597;23;20376;-73
2022/08/25 09:54:49;;;;;;;14.18;4.13;;;;;;;;;;6126475;23;20509;-74
2022/08/25 09:57:35;;;;;;;16.23;4.07;;;;;;;;;;6126387;23;20021;-75
2022/08/25 10:00:13;;;;;;;15.15;3.95;;;;;;;;;;6126629;23;20028;-74
2022/08/25 10:02:42;;;;;;;17.17;5.55;;;;;;;;;;6126681;23;20397;-74
2022/08/25 10:05:18;;;;;;;13.98;4.55;;;;;;;;;;6124594;23;20105;-73
2022/08/25 10:07:57;;;;;;;15.43;3.80;;;;;;;;;;6126310;23;20126;-73
2022/08/25 10:10:36;;;;;;;15.98;4.15;;;;;;;;;;6124664;23;20021;-73
2022/08/25 10:13:18;;;;;;;13.38;4.40;;;;;;;;;;6125218;23;20445;-75
2022/08/25 10:16:02;;;;;;;13.13;3.55;;;;;;;;;;6125541;23;20472;-75
2022/08/25 10:18:29;;;;;;;11.82;4.15;;;;;;;;;;6125887;23;20021;-73
2022/08/25 10:21:06;;;;;;;12.73;4.10;;;;;;;;;;6125218;23;20026;-75
2022/08/25 10:23:35;;;;;;;15.35;3.63;;;;;;;;;;6124231;23;20080;-75
2022/08/25 10:26:05;;;;;;;16.88;3.35;;;;;;;;;;6124707;23;20021;-74
2022/08/25 10:28:41;;;;;;;15.98;3.92;;;;;;;;;;6126069;23;20022;-75
2022/08/25 10:31:19;;;;;;;15.38;4.40;;;;;;;;;;6126416;23;20013;-74
2022/08/25 10:33:54;;;;;;;13.65;3.78;;;;;;;;;;6125979;23;20017;-76
2022/08/25 10:36:22;;;;;;;;;;;;;;;;;;6126545;23;20532;-74
2022/08/25 10:39:01;;;;;;;19.27;4.03;;;;;;;;;;6125976;23;19917;-73
2022/08/25 10:41:29;;;;;;;15.15;3.72;;;;;;;;;;6126185;23;20043;-73
2022/08/25 10:47:05;;;;;;;14.80;3.80;;;;;;;;;;6125470;23;20030;-73
2022/08/25 10:49:37;;;;;;;20.08;4.07;;;;;;;;;;6125904;23;20069;-74
2022/08/25 10:52:13;;;;;;;15.68;4.00;;;;;;;;;;6125803;23;20355;-73
2022/08/25 10:54:52;;;;;;;18.27;4.40;;;;;;;;;;6123086;23;20150;-73
2022/08/25 10:57:35;;;;;;;32.50;22.95;;;;;;;;;;6124395;23;20072;-74
2022/08/25 11:00:04;;;;;;;19.02;5.07;;;;;;;;;;6124882;23;20018;-74
2022/08/25 11:02:58;;;;;;;13.73;3.90;;;;;;;;;;6124814;23;20028;-75
2022/08/25 11:05:27;;;;;;;15.57;4.50;;;;;;;;;;6102521;23;20022;-74
2022/08/25 11:08:01;;;;;;;14.45;3.95;;;;;;;;;;6123569;23;20028;-72
2022/08/25 11:10:38;;;;;;;16.20;4.55;;;;;;;;;;6123888;23;20069;-73
2022/08/25 11:13:09;;;;;;;16.73;4.47;;;;;;;;;;6125808;23;20022;-73
2022/08/25 11:15:45;;;;;;;17.60;4.00;;;;;;;;;;6125988;23;20049;-72
2022/08/25 11:18:33;;;;;;;16.45;4.80;;;;;;;;;;6126327;23;20093;-73
2022/08/25 11:21:09;;;;;;;20.17;4.40;;;;;;;;;;6125107;23;20057;-72
2022/08/25 11:24:02;;;;;;;12.13;3.70;;;;;;;;;;6125285;23;20379;-72
2022/08/25 11:26:33;;;;;;;17.77;4.40;;;;;;;;;;6117380;23;20026;-72
2022/08/25 11:29:15;;;;;;;17.10;3.97;;;;;;;;;;6124052;23;20443;-73
2022/08/25 11:31:48;;;;;;;13.98;3.83;;;;;;;;;;6123889;23;20024;-75
2022/08/25 11:34:20;;;;;;;12.18;3.97;;;;;;;;;;6125405;23;20318;-73
2022/08/25 11:36:59;;;;;;;14.07;4.15;;;;;;;;;;6125509;23;20018;-73
2022/08/25 11:39:46;;;;;;;11.45;3.97;;;;;;;;;;6125123;23;20018;-74
2022/08/25 11:42:25;;;;;;;16.95;4.10;;;;;;;;;;6125608;23;20018;-73
2022/08/25 11:44:54;;;;;;;17.35;4.32;;;;;;;;;;6125286;23;20017;-74
2022/08/25 11:47:22;;;;;;;18.65;4.93;;;;;;;;;;6125678;23;20014;-74
2022/08/25 11:49:52;;;;;;;21.42;4.20;;;;;;;;;;6125035;23;20018;-73
2022/08/25 11:52:34;;;;;;;18.30;4.22;;;;;;;;;;6125732;23;20472;-74
2022/08/25 11:55:06;;;;;;;16.05;3.90;;;;;;;;;;6125000;23;20340;-75
2022/08/25 11:57:36;;;;;;;18.20;3.45;;;;;;;;;;6125009;23;20022;-73
2022/08/25 12:00:13;;;;;;;20.13;4.43;;;;;;;;;;6125660;23;20018;-73
2022/08/25 12:02:42;;;;;;;16.02;3.83;;;;;;;;;;6124756;23;20025;-74
2022/08/25 12:05:13;;;;;;;16.48;4.05;;;;;;;;;;6125277;23;20014;-73
2022/08/25 12:07:47;;;;;;;21.00;4.38;;;;;;;;;;6125220;23;20056;-73
2022/08/25 12:10:25;;;;;;;16.45;4.10;;;;;;;;;;6124057;23;20089;-74
2022/08/25 12:13:03;;;;;;;16.83;4.03;;;;;;;;;;6125233;23;20017;-72
2022/08/25 12:15:42;;;;;;;17.50;3.92;;;;;;;;;;6125252;23;20029;-73
2022/08/25 12:18:13;;;;;;;25.15;9.65;;;;;;;;;;6125377;23;20013;-74
2022/08/25 12:20:56;;;;;;;18.40;4.03;;;;;;;;;;6125530;23;20022;-73
2022/08/25 12:23:43;;;;;;;21.35;4.00;;;;;;;;;;6125380;23;20093;-74
2022/08/25 12:26:18;;;;;;;22.98;3.53;;;;;;;;;;6125277;23;20341;-74
2022/08/25 12:28:54;;;;;;;16.13;3.78;;;;;;;;;;6125163;23;20028;-72
2022/08/25 12:31:37;;;;;;;21.70;4.25;;;;;;;;;;6125442;23;20018;-73
2022/08/25 12:34:08;;;;;;;22.40;4.80;;;;;;;;;;6125446;23;20040;-73
2022/08/25 12:36:38;;;;;;;19.98;4.40;;;;;;;;;;6123786;23;20046;-74
2022/08/25 12:39:19;;;;;;;16.40;4.50;;;;;;;;;;6125538;23;20018;-74
2022/08/25 12:41:52;;;;;;;18.52;3.95;;;;;;;;;;6125385;23;20029;-73
2022/08/25 12:44:33;;;;;;;17.02;3.70;;;;;;;;;;6124981;23;20018;-74
2022/08/25 12:47:11;;;;;;;23.15;4.50;;;;;;;;;;6125500;23;20041;-73
2022/08/25 12:49:38;;;;;;;18.02;3.95;;;;;;;;;;6124909;23;20024;-73
2022/08/25 12:52:10;;;;;;;15.35;4.57;;;;;;;;;;6125056;23;20014;-73
2022/08/25 12:54:40;;;;;;;22.38;4.82;;;;;;;;;;6124836;23;20457;-74
2022/08/25 12:57:22;;;;;;;22.15;4.55;;;;;;;;;;6125073;23;20441;-74
2022/08/25 12:59:57;;;;;;;19.05;3.72;;;;;;;;;;6125076;23;20049;-74
2022/08/25 13:02:37;;;;;;;14.90;4.03;;;;;;;;;;6124999;23;20022;-75
2022/08/25 13:05:14;;;;;;;18.58;4.10;;;;;;;;;;6125131;23;20029;-74
2022/08/25 13:07:49;;;;;;;30.02;4.35;;;;;;;;;;6124709;23;20097;-75
2022/08/25 13:10:53;;;;;;;25.55;4.28;;;;;;;;;;6125799;23;20045;-75
2022/08/25 13:13:20;;;;;;;21.38;4.25;;;;;;;;;;6065903;23;20054;-73
2022/08/25 13:15:57;;;;;;;20.30;3.90;;;;;;;;;;6116027;23;20021;-74
2022/08/25 13:18:29;;;;;;;22.08;4.53;;;;;;;;;;6125095;23;20021;-72
2022/08/25 13:21:05;;;;;;;23.20;4.95;;;;;;;;;;6126663;23;20022;-75
2022/08/25 13:23:35;;;;;;;20.58;3.95;;;;;;;;;;6125725;23;20049;-75
2022/08/25 13:26:03;;;;;;;21.17;3.55;;;;;;;;;;6125592;23;20048;-73
2022/08/25 13:28:33;;;;;;;24.77;4.25;;;;;;;;;;6126712;23;20369;-74
2022/08/25 13:31:03;;;;;;;22.05;4.43;;;;;;;;;;6126987;23;20090;-73
2022/08/25 13:33:32;;;;;;;20.85;3.88;;;;;;;;;;6126993;23;20523;-73
2022/08/25 13:38:47;;;;;;;25.67;3.92;;;;;;;;;;6125725;23;20061;-74
2022/08/25 13:41:23;;;;;;;19.10;4.25;;;;;;;;;;6126261;23;20078;-75
2022/08/25 13:43:56;;;;;;;22.90;6.03;;;;;;;;;;6124947;23;20041;-73
2022/08/25 13:46:28;;;;;;;27.65;4.20;;;;;;;;;;6125109;23;20020;-72
2022/08/25 13:49:04;;;;;;;23.75;4.03;;;;;;;;;;6125996;23;20022;-74
2022/08/25 13:51:32;;;;;;;19.83;4.55;;;;;;;;;;6126303;23;20028;-73
2022/08/25 13:54:02;;;;;;;13.85;3.53;;;;;;;;;;6126023;23;20326;-75
2022/08/25 13:56:36;;;;;;;19.27;4.15;;;;;;;;;;6125692;23;20434;-74
2022/08/25 13:59:20;;;;;;;20.52;4.20;;;;;;;;;;6126249;23;20022;-73
2022/08/25 14:01:48;;;;;;;23.75;5.15;;;;;;;;;;6126235;23;20029;-72
2022/08/25 14:04:21;;;;;;;17.00;4.18;;;;;;;;;;6126257;23;20025;-74
2022/08/25 14:07:04;;;;;;;19.20;4.10;;;;;;;;;;6126612;23;20318;-73
2022/08/25 14:09:47;;;;;;;21.85;4.60;;;;;;;;;;6124687;23;20022;-71
2022/08/25 14:12:33;;;;;;;17.45;4.63;;;;;;;;;;6125762;23;20102;-72
2022/08/25 14:15:10;;;;;;;20.20;4.18;;;;;;;;;;6126364;23;20021;-73
2022/08/25 14:17:40;;;;;;;17.30;4.32;;;;;;;;;;6126172;23;20043;-73
2022/08/25 14:20:20;;;;;;;23.80;4.65;;;;;;;;;;6124613;23;20467;-72
2022/08/25 14:22:52;;;;;;;16.58;4.32;;;;;;;;;;6125629;23;20069;-73
2022/08/25 14:25:20;;;;;;;25.90;4.95;;;;;;;;;;6125669;23;20018;-72
2022/08/25 14:28:08;;;;;;;24.65;4.63;;;;;;;;;;6125587;23;20018;-73
2022/08/25 14:30:41;;;;;;;17.80;3.80;;;;;;;;;;6124264;23;20026;-74
2022/08/25 14:33:12;;;;;;;20.65;3.92;;;;;;;;;;6126161;23;20385;-73
2022/08/25 14:35:41;;;;;;;19.88;3.80;;;;;;;;;;6125767;23;20486;-73
2022/08/25 14:38:10;;;;;;;18.50;4.35;;;;;;;;;;6125411;23;20026;-73
2022/08/25 14:40:38;;;;;;;25.38;4.38;;;;;;;;;;6125443;23;20018;-73
2022/08/25 14:43:07;;;;;;;19.88;4.22;;;;;;;;;;6125866;23;20097;-73
2022/08/25 14:45:37;;;;;;;20.33;4.28;;;;;;;;;;6125280;23;20041;-75
2022/08/25 14:48:06;;;;;;;18.48;3.97;;;;;;;;;;6125846;23;20054;-72
2022/08/25 14:50:37;;;;;;;23.75;4.60;;;;;;;;;;6125832;23;20014;-73
2022/08/25 14:53:09;;;;;;;18.05;4.15;;;;;;;;;;6125259;23;20021;-72
2022/08/25 14:55:37;;;;;;;19.48;4.13;;;;;;;;;;6125446;23;20028;-73
2022/08/25 14:58:06;;;;;;;24.75;4.43;;;;;;;;;;6125803;23;20018;-73
2022/08/25 15:00:40;;;;;;;18.30;4.15;;;;;;;;;;6125410;23;20022;-74
2022/08/25 15:03:07;;;;;;;24.40;3.83;;;;;;;;;;6125594;23;20333;-73
2022/08/25 15:05:35;;;;;;;22.30;4.15;;;;;;;;;;6125741;23;20014;-73
2022/08/25 15:10:49;;;;;;;19.63;4.97;;;;;;;;;;6125792;23;20043;-73
2022/08/25 15:13:17;;;;;;;16.25;3.53;;;;;;;;;;6125788;23;20044;-73
2022/08/25 15:15:46;;;;;;;18.33;4.30;;;;;;;;;;6125294;23;20069;-73